sensor_id;sensor_type;location;lat;lon;timestamp;P1;durP1;ratioP1;P2;durP2;ratioP2
5608;SDS011;2826;51.354;9.588;2022-10-01T00:01:10;6.67;;;4.93;;
5608;SDS011;2826;51.354;9.588;2022-10-01T00:03:39;7.87;;;5.30;;
5608;SDS011;2826;51.354;9.588;2022-10-01T00:06:07;6.63;;;5.40;;
5608;SDS011;2826;51.354;9.588;2022-10-01T00:08:36;7.77;;;5.30;;
5608;SDS011;2826;51.354;9.588;2022-10-01T00:11:09;6.70;;;5.23;;
5608;SDS011;2826;51.354;9.588;2022-10-01T00:13:38;14.77;;;6.57;;
5608;SDS011;2826;51.354;9.588;2022-10-01T00:16:06;7.30;;;5.90;;
5608;SDS011;2826;51.354;9.588;2022-10-01T00:18:35;9.73;;;5.43;;
5608;SDS011;2826;51.354;9.588;2022-10-01T00:21:06;9.40;;;5.13;;
5608;SDS011;2826;51.354;9.588;2022-10-01T00:23:34;8.67;;;5.40;;
5608;SDS011;2826;51.354;9.588;2022-10-01T00:26:09;9.33;;;4.87;;
5608;SDS011;2826;51.354;9.588;2022-10-01T00:28:38;4.83;;;4.10;;
5608;SDS011;2826;51.354;9.588;2022-10-01T00:31:06;8.00;;;4.60;;
5608;SDS011;2826;51.354;9.588;2022-10-01T00:33:34;8.63;;;4.97;;
5608;SDS011;2826;51.354;9.588;2022-10-01T00:36:01;6.07;;;4.70;;
5608;SDS011;2826;51.354;9.588;2022-10-01T00:38:29;5.90;;;4.10;;
5608;SDS011;2826;51.354;9.588;2022-10-01T00:40:56;7.63;;;4.73;;
5608;SDS011;2826;51.354;9.588;2022-10-01T00:43:25;7.30;;;4.90;;
5608;SDS011;2826;51.354;9.588;2022-10-01T00:45:54;8.50;;;4.57;;
5608;SDS011;2826;51.354;9.588;2022-10-01T00:48:25;9.43;;;4.60;;
5608;SDS011;2826;51.354;9.588;2022-10-01T00:50:53;9.07;;;4.80;;
5608;SDS011;2826;51.354;9.588;2022-10-01T00:53:21;8.07;;;4.97;;
5608;SDS011;2826;51.354;9.588;2022-10-01T00:55:50;6.87;;;5.00;;
5608;SDS011;2826;51.354;9.588;2022-10-01T00:58:20;8.80;;;5.33;;
5608;SDS011;2826;51.354;9.588;2022-10-01T01:00:50;7.43;;;4.43;;
5608;SDS011;2826;51.354;9.588;2022-10-01T01:03:21;8.37;;;5.23;;
5608;SDS011;2826;51.354;9.588;2022-10-01T01:05:48;11.87;;;5.33;;
5608;SDS011;2826;51.354;9.588;2022-10-01T01:08:16;6.53;;;4.67;;
5608;SDS011;2826;51.354;9.588;2022-10-01T01:10:46;5.43;;;4.30;;
5608;SDS011;2826;51.354;9.588;2022-10-01T01:13:22;8.63;;;5.00;;
5608;SDS011;2826;51.354;9.588;2022-10-01T01:15:56;5.53;;;4.40;;
5608;SDS011;2826;51.354;9.588;2022-10-01T01:18:32;9.40;;;4.40;;
5608;SDS011;2826;51.354;9.588;2022-10-01T01:21:07;6.50;;;4.30;;
5608;SDS011;2826;51.354;9.588;2022-10-01T01:26:40;5.73;;;4.43;;
5608;SDS011;2826;51.354;9.588;2022-10-01T01:29:21;8.90;;;4.40;;
5608;SDS011;2826;51.354;9.588;2022-10-01T01:31:52;8.50;;;4.90;;
5608;SDS011;2826;51.354;9.588;2022-10-01T01:34:24;8.77;;;5.17;;
5608;SDS011;2826;51.354;9.588;2022-10-01T01:36:56;10.97;;;5.30;;
5608;SDS011;2826;51.354;9.588;2022-10-01T01:39:28;8.50;;;4.97;;
5608;SDS011;2826;51.354;9.588;2022-10-01T01:41:58;11.40;;;5.20;;
5608;SDS011;2826;51.354;9.588;2022-10-01T01:44:30;10.47;;;4.80;;
5608;SDS011;2826;51.354;9.588;2022-10-01T01:47:02;6.70;;;4.97;;
5608;SDS011;2826;51.354;9.588;2022-10-01T01:49:32;10.83;;;5.30;;
5608;SDS011;2826;51.354;9.588;2022-10-01T01:52:02;8.93;;;5.20;;
5608;SDS011;2826;51.354;9.588;2022-10-01T01:54:34;6.47;;;5.13;;
5608;SDS011;2826;51.354;9.588;2022-10-01T01:57:01;8.30;;;5.20;;
5608;SDS011;2826;51.354;9.588;2022-10-01T01:59:31;8.20;;;5.40;;
5608;SDS011;2826;51.354;9.588;2022-10-01T02:01:59;8.07;;;5.80;;
5608;SDS011;2826;51.354;9.588;2022-10-01T02:04:27;7.87;;;5.40;;
5608;SDS011;2826;51.354;9.588;2022-10-01T02:09:56;7.67;;;6.00;;
5608;SDS011;2826;51.354;9.588;2022-10-01T02:12:36;11.80;;;5.90;;
5608;SDS011;2826;51.354;9.588;2022-10-01T02:15:18;11.80;;;7.13;;
5608;SDS011;2826;51.354;9.588;2022-10-01T02:17:53;9.83;;;6.13;;
5608;SDS011;2826;51.354;9.588;2022-10-01T02:20:26;9.53;;;6.47;;
5608;SDS011;2826;51.354;9.588;2022-10-01T02:22:57;11.60;;;6.90;;
5608;SDS011;2826;51.354;9.588;2022-10-01T02:25:30;10.17;;;6.37;;
5608;SDS011;2826;51.354;9.588;2022-10-01T02:28:04;10.57;;;6.23;;
5608;SDS011;2826;51.354;9.588;2022-10-01T02:30:36;9.77;;;6.20;;
5608;SDS011;2826;51.354;9.588;2022-10-01T02:33:05;9.73;;;6.03;;
5608;SDS011;2826;51.354;9.588;2022-10-01T02:35:35;6.60;;;5.70;;
5608;SDS011;2826;51.354;9.588;2022-10-01T02:38:04;11.60;;;6.43;;
5608;SDS011;2826;51.354;9.588;2022-10-01T02:40:34;7.03;;;5.70;;
5608;SDS011;2826;51.354;9.588;2022-10-01T02:43:05;7.80;;;5.60;;
5608;SDS011;2826;51.354;9.588;2022-10-01T02:45:35;8.80;;;6.30;;
5608;SDS011;2826;51.354;9.588;2022-10-01T02:48:06;5.97;;;5.37;;
5608;SDS011;2826;51.354;9.588;2022-10-01T02:50:36;11.93;;;6.20;;
5608;SDS011;2826;51.354;9.588;2022-10-01T02:53:13;11.97;;;6.90;;
5608;SDS011;2826;51.354;9.588;2022-10-01T02:55:45;10.87;;;6.10;;
5608;SDS011;2826;51.354;9.588;2022-10-01T02:58:14;8.23;;;5.70;;
5608;SDS011;2826;51.354;9.588;2022-10-01T03:00:44;8.30;;;5.77;;
5608;SDS011;2826;51.354;9.588;2022-10-01T03:03:11;8.93;;;6.30;;
5608;SDS011;2826;51.354;9.588;2022-10-01T03:05:38;8.47;;;6.00;;
5608;SDS011;2826;51.354;9.588;2022-10-01T03:08:05;8.87;;;5.80;;
5608;SDS011;2826;51.354;9.588;2022-10-01T03:10:31;6.20;;;4.90;;
5608;SDS011;2826;51.354;9.588;2022-10-01T03:12:59;11.67;;;5.40;;
5608;SDS011;2826;51.354;9.588;2022-10-01T03:15:26;11.37;;;5.73;;
5608;SDS011;2826;51.354;9.588;2022-10-01T03:17:55;7.57;;;4.40;;
5608;SDS011;2826;51.354;9.588;2022-10-01T03:20:22;5.23;;;4.70;;
5608;SDS011;2826;51.354;9.588;2022-10-01T03:22:50;6.80;;;4.33;;
5608;SDS011;2826;51.354;9.588;2022-10-01T03:25:17;4.93;;;3.80;;
5608;SDS011;2826;51.354;9.588;2022-10-01T03:27:44;3.90;;;3.10;;
5608;SDS011;2826;51.354;9.588;2022-10-01T03:30:12;3.87;;;3.30;;
5608;SDS011;2826;51.354;9.588;2022-10-01T03:32:39;11.60;;;3.50;;
5608;SDS011;2826;51.354;9.588;2022-10-01T03:35:08;6.10;;;3.67;;
5608;SDS011;2826;51.354;9.588;2022-10-01T03:37:35;9.03;;;3.80;;
5608;SDS011;2826;51.354;9.588;2022-10-01T03:40:02;8.50;;;4.50;;
5608;SDS011;2826;51.354;9.588;2022-10-01T03:42:30;6.43;;;3.70;;
5608;SDS011;2826;51.354;9.588;2022-10-01T03:44:56;5.60;;;3.83;;
5608;SDS011;2826;51.354;9.588;2022-10-01T03:47:23;4.63;;;3.00;;
5608;SDS011;2826;51.354;9.588;2022-10-01T03:49:50;3.00;;;2.60;;
5608;SDS011;2826;51.354;9.588;2022-10-01T03:52:18;6.80;;;2.93;;
5608;SDS011;2826;51.354;9.588;2022-10-01T03:54:45;3.03;;;2.73;;
5608;SDS011;2826;51.354;9.588;2022-10-01T03:57:12;4.40;;;3.30;;
5608;SDS011;2826;51.354;9.588;2022-10-01T03:59:39;4.13;;;2.80;;
5608;SDS011;2826;51.354;9.588;2022-10-01T04:02:07;13.80;;;3.13;;
5608;SDS011;2826;51.354;9.588;2022-10-01T04:04:34;4.87;;;2.90;;
5608;SDS011;2826;51.354;9.588;2022-10-01T04:07:01;6.27;;;2.30;;
5608;SDS011;2826;51.354;9.588;2022-10-01T04:09:29;5.50;;;3.13;;
5608;SDS011;2826;51.354;9.588;2022-10-01T04:11:56;5.53;;;3.47;;
5608;SDS011;2826;51.354;9.588;2022-10-01T04:14:23;8.03;;;2.80;;
5608;SDS011;2826;51.354;9.588;2022-10-01T04:16:51;5.03;;;3.13;;
5608;SDS011;2826;51.354;9.588;2022-10-01T04:19:18;4.10;;;3.10;;
5608;SDS011;2826;51.354;9.588;2022-10-01T04:21:45;4.20;;;3.00;;
5608;SDS011;2826;51.354;9.588;2022-10-01T04:24:12;3.97;;;2.50;;
5608;SDS011;2826;51.354;9.588;2022-10-01T04:26:40;4.97;;;3.40;;
5608;SDS011;2826;51.354;9.588;2022-10-01T04:29:07;5.50;;;2.90;;
5608;SDS011;2826;51.354;9.588;2022-10-01T04:31:35;4.43;;;3.10;;
5608;SDS011;2826;51.354;9.588;2022-10-01T04:34:02;3.50;;;2.77;;
5608;SDS011;2826;51.354;9.588;2022-10-01T04:36:29;4.03;;;2.77;;
5608;SDS011;2826;51.354;9.588;2022-10-01T04:38:56;3.63;;;2.90;;
5608;SDS011;2826;51.354;9.588;2022-10-01T04:41:23;4.53;;;2.93;;
5608;SDS011;2826;51.354;9.588;2022-10-01T04:43:52;5.20;;;3.30;;
5608;SDS011;2826;51.354;9.588;2022-10-01T04:46:19;4.07;;;3.50;;
5608;SDS011;2826;51.354;9.588;2022-10-01T04:48:46;5.57;;;3.87;;
5608;SDS011;2826;51.354;9.588;2022-10-01T04:51:14;6.03;;;3.20;;
5608;SDS011;2826;51.354;9.588;2022-10-01T04:53:42;6.73;;;3.47;;
5608;SDS011;2826;51.354;9.588;2022-10-01T04:56:09;4.50;;;3.10;;
5608;SDS011;2826;51.354;9.588;2022-10-01T04:58:36;5.33;;;3.87;;
5608;SDS011;2826;51.354;9.588;2022-10-01T05:01:04;3.70;;;3.30;;
5608;SDS011;2826;51.354;9.588;2022-10-01T05:03:31;8.10;;;3.40;;
5608;SDS011;2826;51.354;9.588;2022-10-01T05:05:58;4.23;;;3.43;;
5608;SDS011;2826;51.354;9.588;2022-10-01T05:08:25;9.00;;;4.00;;
5608;SDS011;2826;51.354;9.588;2022-10-01T05:10:53;9.13;;;3.90;;
5608;SDS011;2826;51.354;9.588;2022-10-01T05:13:20;5.70;;;3.40;;
5608;SDS011;2826;51.354;9.588;2022-10-01T05:15:47;4.80;;;3.13;;
5608;SDS011;2826;51.354;9.588;2022-10-01T05:18:17;4.43;;;3.83;;
5608;SDS011;2826;51.354;9.588;2022-10-01T05:20:44;5.67;;;3.80;;
5608;SDS011;2826;51.354;9.588;2022-10-01T05:23:11;4.47;;;3.67;;
5608;SDS011;2826;51.354;9.588;2022-10-01T05:25:38;4.70;;;3.70;;
5608;SDS011;2826;51.354;9.588;2022-10-01T05:28:05;6.20;;;4.00;;
5608;SDS011;2826;51.354;9.588;2022-10-01T05:30:33;10.00;;;2.70;;
5608;SDS011;2826;51.354;9.588;2022-10-01T05:33:00;4.20;;;3.43;;
5608;SDS011;2826;51.354;9.588;2022-10-01T05:35:30;4.37;;;3.17;;
5608;SDS011;2826;51.354;9.588;2022-10-01T05:37:58;5.43;;;3.70;;
5608;SDS011;2826;51.354;9.588;2022-10-01T05:40:27;3.30;;;2.83;;
5608;SDS011;2826;51.354;9.588;2022-10-01T05:42:55;4.40;;;4.00;;
5608;SDS011;2826;51.354;9.588;2022-10-01T05:45:22;5.57;;;3.07;;
5608;SDS011;2826;51.354;9.588;2022-10-01T05:47:55;4.67;;;3.00;;
5608;SDS011;2826;51.354;9.588;2022-10-01T05:50:23;4.20;;;3.00;;
5608;SDS011;2826;51.354;9.588;2022-10-01T05:52:52;5.40;;;3.20;;
5608;SDS011;2826;51.354;9.588;2022-10-01T05:55:20;3.13;;;2.27;;
5608;SDS011;2826;51.354;9.588;2022-10-01T05:57:55;3.40;;;2.60;;
5608;SDS011;2826;51.354;9.588;2022-10-01T06:00:23;4.70;;;3.00;;
5608;SDS011;2826;51.354;9.588;2022-10-01T06:02:53;6.27;;;2.50;;
5608;SDS011;2826;51.354;9.588;2022-10-01T06:05:21;4.23;;;2.70;;
5608;SDS011;2826;51.354;9.588;2022-10-01T06:07:48;2.80;;;2.23;;
5608;SDS011;2826;51.354;9.588;2022-10-01T06:10:17;3.50;;;2.50;;
5608;SDS011;2826;51.354;9.588;2022-10-01T06:12:45;12.43;;;2.97;;
5608;SDS011;2826;51.354;9.588;2022-10-01T06:15:13;3.80;;;2.43;;
5608;SDS011;2826;51.354;9.588;2022-10-01T06:17:40;2.60;;;1.83;;
5608;SDS011;2826;51.354;9.588;2022-10-01T06:20:10;3.63;;;2.37;;
5608;SDS011;2826;51.354;9.588;2022-10-01T06:22:38;2.27;;;1.93;;
5608;SDS011;2826;51.354;9.588;2022-10-01T06:25:07;3.77;;;2.63;;
5608;SDS011;2826;51.354;9.588;2022-10-01T06:27:37;5.60;;;2.50;;
5608;SDS011;2826;51.354;9.588;2022-10-01T06:30:04;6.50;;;2.80;;
5608;SDS011;2826;51.354;9.588;2022-10-01T06:32:32;3.37;;;2.57;;
5608;SDS011;2826;51.354;9.588;2022-10-01T06:34:59;2.80;;;1.83;;
5608;SDS011;2826;51.354;9.588;2022-10-01T06:37:26;3.90;;;2.83;;
5608;SDS011;2826;51.354;9.588;2022-10-01T06:39:53;5.53;;;2.80;;
5608;SDS011;2826;51.354;9.588;2022-10-01T06:42:20;2.80;;;2.30;;
5608;SDS011;2826;51.354;9.588;2022-10-01T06:44:48;3.80;;;2.23;;
5608;SDS011;2826;51.354;9.588;2022-10-01T06:47:15;6.10;;;2.17;;
5608;SDS011;2826;51.354;9.588;2022-10-01T06:49:42;1.97;;;1.83;;
5608;SDS011;2826;51.354;9.588;2022-10-01T06:52:09;3.60;;;2.60;;
5608;SDS011;2826;51.354;9.588;2022-10-01T06:54:53;5.83;;;2.80;;
5608;SDS011;2826;51.354;9.588;2022-10-01T06:57:20;3.87;;;2.40;;
5608;SDS011;2826;51.354;9.588;2022-10-01T06:59:48;2.60;;;2.40;;
5608;SDS011;2826;51.354;9.588;2022-10-01T07:02:20;2.80;;;2.10;;
5608;SDS011;2826;51.354;9.588;2022-10-01T07:04:53;3.00;;;2.67;;
5608;SDS011;2826;51.354;9.588;2022-10-01T07:07:23;3.30;;;2.40;;
5608;SDS011;2826;51.354;9.588;2022-10-01T07:09:50;2.63;;;2.40;;
5608;SDS011;2826;51.354;9.588;2022-10-01T07:12:17;2.70;;;2.50;;
5608;SDS011;2826;51.354;9.588;2022-10-01T07:14:45;2.40;;;2.20;;
5608;SDS011;2826;51.354;9.588;2022-10-01T07:17:13;2.03;;;1.93;;
5608;SDS011;2826;51.354;9.588;2022-10-01T07:19:40;2.97;;;2.50;;
5608;SDS011;2826;51.354;9.588;2022-10-01T07:22:07;2.57;;;2.23;;
5608;SDS011;2826;51.354;9.588;2022-10-01T07:24:34;3.30;;;2.57;;
5608;SDS011;2826;51.354;9.588;2022-10-01T07:27:01;4.10;;;2.37;;
5608;SDS011;2826;51.354;9.588;2022-10-01T07:29:29;2.97;;;2.40;;
5608;SDS011;2826;51.354;9.588;2022-10-01T07:31:56;2.70;;;2.20;;
5608;SDS011;2826;51.354;9.588;2022-10-01T07:34:26;2.90;;;2.30;;
5608;SDS011;2826;51.354;9.588;2022-10-01T07:36:55;2.37;;;2.10;;
5608;SDS011;2826;51.354;9.588;2022-10-01T07:39:22;3.87;;;2.50;;
5608;SDS011;2826;51.354;9.588;2022-10-01T07:41:49;7.97;;;2.60;;
5608;SDS011;2826;51.354;9.588;2022-10-01T07:44:16;2.43;;;2.23;;
5608;SDS011;2826;51.354;9.588;2022-10-01T07:46:43;1.70;;;1.60;;
5608;SDS011;2826;51.354;9.588;2022-10-01T07:49:10;2.60;;;2.40;;
5608;SDS011;2826;51.354;9.588;2022-10-01T07:51:39;1.93;;;1.73;;
5608;SDS011;2826;51.354;9.588;2022-10-01T07:54:07;2.70;;;2.40;;
5608;SDS011;2826;51.354;9.588;2022-10-01T07:56:35;3.00;;;2.30;;
5608;SDS011;2826;51.354;9.588;2022-10-01T07:59:02;2.47;;;2.27;;
5608;SDS011;2826;51.354;9.588;2022-10-01T08:01:29;4.10;;;2.20;;
5608;SDS011;2826;51.354;9.588;2022-10-01T08:03:57;5.00;;;2.37;;
5608;SDS011;2826;51.354;9.588;2022-10-01T08:06:24;2.10;;;1.90;;
5608;SDS011;2826;51.354;9.588;2022-10-01T08:08:52;2.60;;;2.23;;
5608;SDS011;2826;51.354;9.588;2022-10-01T08:11:19;1.80;;;1.70;;
5608;SDS011;2826;51.354;9.588;2022-10-01T08:13:46;2.20;;;2.00;;
5608;SDS011;2826;51.354;9.588;2022-10-01T08:16:12;2.20;;;2.00;;
5608;SDS011;2826;51.354;9.588;2022-10-01T08:18:40;2.30;;;1.83;;
5608;SDS011;2826;51.354;9.588;2022-10-01T08:21:07;2.33;;;1.70;;
5608;SDS011;2826;51.354;9.588;2022-10-01T08:23:34;3.20;;;1.80;;
5608;SDS011;2826;51.354;9.588;2022-10-01T08:26:03;2.17;;;2.00;;
5608;SDS011;2826;51.354;9.588;2022-10-01T08:28:32;1.77;;;1.67;;
5608;SDS011;2826;51.354;9.588;2022-10-01T08:31:02;2.17;;;2.00;;
5608;SDS011;2826;51.354;9.588;2022-10-01T08:33:31;2.10;;;1.80;;
5608;SDS011;2826;51.354;9.588;2022-10-01T08:35:59;1.87;;;1.40;;
5608;SDS011;2826;51.354;9.588;2022-10-01T08:38:27;1.70;;;1.60;;
5608;SDS011;2826;51.354;9.588;2022-10-01T08:40:54;2.30;;;2.10;;
5608;SDS011;2826;51.354;9.588;2022-10-01T08:43:28;2.30;;;2.10;;
5608;SDS011;2826;51.354;9.588;2022-10-01T08:45:59;2.50;;;2.03;;
5608;SDS011;2826;51.354;9.588;2022-10-01T08:48:37;2.77;;;2.20;;
5608;SDS011;2826;51.354;9.588;2022-10-01T08:51:12;3.50;;;2.10;;
5608;SDS011;2826;51.354;9.588;2022-10-01T08:53:44;1.90;;;1.80;;
5608;SDS011;2826;51.354;9.588;2022-10-01T08:56:17;2.30;;;2.20;;
5608;SDS011;2826;51.354;9.588;2022-10-01T08:58:52;2.23;;;1.80;;
5608;SDS011;2826;51.354;9.588;2022-10-01T09:01:23;2.07;;;1.87;;
5608;SDS011;2826;51.354;9.588;2022-10-01T09:03:50;2.60;;;2.10;;
5608;SDS011;2826;51.354;9.588;2022-10-01T09:06:20;2.20;;;2.10;;
5608;SDS011;2826;51.354;9.588;2022-10-01T09:09:08;3.17;;;2.20;;
5608;SDS011;2826;51.354;9.588;2022-10-01T09:11:51;2.17;;;1.97;;
5608;SDS011;2826;51.354;9.588;2022-10-01T09:14:39;2.00;;;1.70;;
5608;SDS011;2826;51.354;9.588;2022-10-01T09:17:18;4.10;;;1.57;;
5608;SDS011;2826;51.354;9.588;2022-10-01T09:20:00;3.20;;;1.70;;
5608;SDS011;2826;51.354;9.588;2022-10-01T09:22:36;2.13;;;1.93;;
5608;SDS011;2826;51.354;9.588;2022-10-01T09:25:10;2.80;;;2.23;;
5608;SDS011;2826;51.354;9.588;2022-10-01T09:27:39;2.43;;;1.80;;
5608;SDS011;2826;51.354;9.588;2022-10-01T09:30:10;3.50;;;2.30;;
5608;SDS011;2826;51.354;9.588;2022-10-01T09:32:42;5.60;;;3.50;;
5608;SDS011;2826;51.354;9.588;2022-10-01T09:35:26;7.03;;;3.60;;
5608;SDS011;2826;51.354;9.588;2022-10-01T09:38:00;11.03;;;2.90;;
5608;SDS011;2826;51.354;9.588;2022-10-01T09:40:32;2.20;;;2.00;;
5608;SDS011;2826;51.354;9.588;2022-10-01T09:43:01;3.17;;;2.30;;
5608;SDS011;2826;51.354;9.588;2022-10-01T09:45:34;4.20;;;2.33;;
5608;SDS011;2826;51.354;9.588;2022-10-01T09:48:02;8.83;;;2.10;;
5608;SDS011;2826;51.354;9.588;2022-10-01T09:50:47;3.80;;;2.60;;
5608;SDS011;2826;51.354;9.588;2022-10-01T09:53:21;3.40;;;3.10;;
5608;SDS011;2826;51.354;9.588;2022-10-01T09:55:55;1.77;;;1.67;;
5608;SDS011;2826;51.354;9.588;2022-10-01T09:58:25;2.60;;;2.40;;
5608;SDS011;2826;51.354;9.588;2022-10-01T10:00:55;3.40;;;2.10;;
5608;SDS011;2826;51.354;9.588;2022-10-01T10:03:24;4.17;;;3.37;;
5608;SDS011;2826;51.354;9.588;2022-10-01T10:05:55;3.50;;;2.47;;
5608;SDS011;2826;51.354;9.588;2022-10-01T10:08:26;4.27;;;2.67;;
5608;SDS011;2826;51.354;9.588;2022-10-01T10:10:56;2.50;;;2.30;;
5608;SDS011;2826;51.354;9.588;2022-10-01T10:13:27;2.20;;;2.00;;
5608;SDS011;2826;51.354;9.588;2022-10-01T10:16:04;3.90;;;2.30;;
5608;SDS011;2826;51.354;9.588;2022-10-01T10:18:35;2.73;;;2.37;;
5608;SDS011;2826;51.354;9.588;2022-10-01T10:21:05;2.50;;;1.67;;
5608;SDS011;2826;51.354;9.588;2022-10-01T10:23:46;3.30;;;2.17;;
5608;SDS011;2826;51.354;9.588;2022-10-01T10:26:16;2.43;;;2.20;;
5608;SDS011;2826;51.354;9.588;2022-10-01T10:28:46;4.00;;;2.33;;
5608;SDS011;2826;51.354;9.588;2022-10-01T10:31:15;6.57;;;2.47;;
5608;SDS011;2826;51.354;9.588;2022-10-01T10:33:45;4.50;;;2.10;;
5608;SDS011;2826;51.354;9.588;2022-10-01T10:36:15;2.27;;;1.93;;
5608;SDS011;2826;51.354;9.588;2022-10-01T10:38:44;2.03;;;1.87;;
5608;SDS011;2826;51.354;9.588;2022-10-01T10:41:14;2.40;;;2.20;;
5608;SDS011;2826;51.354;9.588;2022-10-01T10:43:44;3.17;;;2.87;;
5608;SDS011;2826;51.354;9.588;2022-10-01T10:46:21;5.57;;;3.50;;
5608;SDS011;2826;51.354;9.588;2022-10-01T10:48:54;1.90;;;1.80;;
5608;SDS011;2826;51.354;9.588;2022-10-01T10:51:25;2.70;;;1.60;;
5608;SDS011;2826;51.354;9.588;2022-10-01T10:53:52;2.33;;;2.13;;
5608;SDS011;2826;51.354;9.588;2022-10-01T10:56:20;2.30;;;2.10;;
5608;SDS011;2826;51.354;9.588;2022-10-01T10:58:50;1.73;;;1.63;;
5608;SDS011;2826;51.354;9.588;2022-10-01T11:01:21;3.03;;;1.93;;
5608;SDS011;2826;51.354;9.588;2022-10-01T11:03:51;2.10;;;1.90;;
5608;SDS011;2826;51.354;9.588;2022-10-01T11:06:20;2.23;;;1.60;;
5608;SDS011;2826;51.354;9.588;2022-10-01T11:08:55;2.13;;;1.93;;
5608;SDS011;2826;51.354;9.588;2022-10-01T11:11:31;3.23;;;1.80;;
5608;SDS011;2826;51.354;9.588;2022-10-01T11:17:07;2.60;;;2.40;;
5608;SDS011;2826;51.354;9.588;2022-10-01T11:19:51;7.13;;;5.63;;
5608;SDS011;2826;51.354;9.588;2022-10-01T11:22:30;11.33;;;3.57;;
5608;SDS011;2826;51.354;9.588;2022-10-01T11:25:16;2.60;;;2.37;;
5608;SDS011;2826;51.354;9.588;2022-10-01T11:27:51;2.00;;;1.80;;
5608;SDS011;2826;51.354;9.588;2022-10-01T11:30:31;3.07;;;2.47;;
5608;SDS011;2826;51.354;9.588;2022-10-01T11:33:09;1.80;;;1.70;;
5608;SDS011;2826;51.354;9.588;2022-10-01T11:35:50;2.47;;;2.27;;
5608;SDS011;2826;51.354;9.588;2022-10-01T11:38:30;2.37;;;2.17;;
5608;SDS011;2826;51.354;9.588;2022-10-01T11:41:08;2.63;;;2.30;;
5608;SDS011;2826;51.354;9.588;2022-10-01T11:43:44;2.50;;;1.80;;
5608;SDS011;2826;51.354;9.588;2022-10-01T11:46:18;1.83;;;1.73;;
5608;SDS011;2826;51.354;9.588;2022-10-01T11:48:56;9.40;;;2.40;;
5608;SDS011;2826;51.354;9.588;2022-10-01T11:51:31;2.53;;;1.60;;
5608;SDS011;2826;51.354;9.588;2022-10-01T11:54:05;2.00;;;1.80;;
5608;SDS011;2826;51.354;9.588;2022-10-01T11:56:39;2.83;;;1.77;;
5608;SDS011;2826;51.354;9.588;2022-10-01T11:59:27;2.53;;;1.70;;
5608;SDS011;2826;51.354;9.588;2022-10-01T12:02:02;2.37;;;2.17;;
5608;SDS011;2826;51.354;9.588;2022-10-01T12:04:43;1.90;;;1.80;;
5608;SDS011;2826;51.354;9.588;2022-10-01T12:07:17;1.40;;;1.30;;
5608;SDS011;2826;51.354;9.588;2022-10-01T12:09:49;1.53;;;1.43;;
5608;SDS011;2826;51.354;9.588;2022-10-01T12:12:21;3.13;;;2.50;;
5608;SDS011;2826;51.354;9.588;2022-10-01T12:14:53;3.80;;;2.60;;
5608;SDS011;2826;51.354;9.588;2022-10-01T12:17:27;3.40;;;2.33;;
5608;SDS011;2826;51.354;9.588;2022-10-01T12:20:03;2.60;;;1.60;;
5608;SDS011;2826;51.354;9.588;2022-10-01T12:22:37;1.97;;;1.70;;
5608;SDS011;2826;51.354;9.588;2022-10-01T12:25:09;4.60;;;2.30;;
5608;SDS011;2826;51.354;9.588;2022-10-01T12:27:39;4.37;;;1.50;;
5608;SDS011;2826;51.354;9.588;2022-10-01T12:30:18;1.20;;;1.10;;
5608;SDS011;2826;51.354;9.588;2022-10-01T12:32:49;11.67;;;3.53;;
5608;SDS011;2826;51.354;9.588;2022-10-01T12:35:31;2.60;;;2.03;;
5608;SDS011;2826;51.354;9.588;2022-10-01T12:38:12;2.90;;;1.80;;
5608;SDS011;2826;51.354;9.588;2022-10-01T12:40:49;2.83;;;1.80;;
5608;SDS011;2826;51.354;9.588;2022-10-01T12:43:39;2.57;;;1.47;;
5608;SDS011;2826;51.354;9.588;2022-10-01T12:46:19;1.70;;;1.60;;
5608;SDS011;2826;51.354;9.588;2022-10-01T12:48:54;2.53;;;1.80;;
5608;SDS011;2826;51.354;9.588;2022-10-01T12:51:41;1.30;;;1.20;;
5608;SDS011;2826;51.354;9.588;2022-10-01T12:54:15;1.70;;;1.60;;
5608;SDS011;2826;51.354;9.588;2022-10-01T12:56:59;1.70;;;1.60;;
5608;SDS011;2826;51.354;9.588;2022-10-01T12:59:40;2.30;;;2.10;;
5608;SDS011;2826;51.354;9.588;2022-10-01T13:02:26;5.43;;;4.53;;
5608;SDS011;2826;51.354;9.588;2022-10-01T13:05:16;1.83;;;1.70;;
5608;SDS011;2826;51.354;9.588;2022-10-01T13:07:58;1.60;;;1.50;;
5608;SDS011;2826;51.354;9.588;2022-10-01T13:10:46;3.57;;;1.67;;
5608;SDS011;2826;51.354;9.588;2022-10-01T13:13:17;2.30;;;1.70;;
5608;SDS011;2826;51.354;9.588;2022-10-01T13:15:49;1.60;;;1.50;;
5608;SDS011;2826;51.354;9.588;2022-10-01T13:18:25;2.07;;;1.70;;
5608;SDS011;2826;51.354;9.588;2022-10-01T13:21:03;1.63;;;1.53;;
5608;SDS011;2826;51.354;9.588;2022-10-01T13:23:39;2.80;;;2.60;;
5608;SDS011;2826;51.354;9.588;2022-10-01T13:26:13;4.60;;;3.27;;
5608;SDS011;2826;51.354;9.588;2022-10-01T13:28:55;2.13;;;1.70;;
5608;SDS011;2826;51.354;9.588;2022-10-01T13:31:33;3.10;;;1.97;;
5608;SDS011;2826;51.354;9.588;2022-10-01T13:37:11;2.20;;;2.00;;
5608;SDS011;2826;51.354;9.588;2022-10-01T13:39:41;8.13;;;5.63;;
5608;SDS011;2826;51.354;9.588;2022-10-01T13:42:12;3.50;;;2.77;;
5608;SDS011;2826;51.354;9.588;2022-10-01T13:44:49;2.47;;;2.20;;
5608;SDS011;2826;51.354;9.588;2022-10-01T13:47:19;4.70;;;3.03;;
5608;SDS011;2826;51.354;9.588;2022-10-01T13:49:51;2.00;;;1.80;;
5608;SDS011;2826;51.354;9.588;2022-10-01T13:52:21;3.33;;;1.67;;
5608;SDS011;2826;51.354;9.588;2022-10-01T13:54:50;1.90;;;1.80;;
5608;SDS011;2826;51.354;9.588;2022-10-01T13:57:26;2.33;;;2.17;;
5608;SDS011;2826;51.354;9.588;2022-10-01T13:59:59;4.97;;;2.80;;
5608;SDS011;2826;51.354;9.588;2022-10-01T14:02:34;2.07;;;1.70;;
5608;SDS011;2826;51.354;9.588;2022-10-01T14:05:05;2.80;;;2.23;;
5608;SDS011;2826;51.354;9.588;2022-10-01T14:07:48;2.20;;;2.00;;
5608;SDS011;2826;51.354;9.588;2022-10-01T14:10:21;2.47;;;1.47;;
5608;SDS011;2826;51.354;9.588;2022-10-01T14:13:22;2.67;;;1.53;;
5608;SDS011;2826;51.354;9.588;2022-10-01T14:16:08;3.90;;;1.30;;
5608;SDS011;2826;51.354;9.588;2022-10-01T14:18:37;2.13;;;1.20;;
5608;SDS011;2826;51.354;9.588;2022-10-01T14:21:11;1.87;;;1.20;;
5608;SDS011;2826;51.354;9.588;2022-10-01T14:23:54;3.33;;;1.53;;
5608;SDS011;2826;51.354;9.588;2022-10-01T14:26:32;2.90;;;2.00;;
5608;SDS011;2826;51.354;9.588;2022-10-01T14:29:09;1.87;;;1.77;;
5608;SDS011;2826;51.354;9.588;2022-10-01T14:31:46;5.60;;;2.00;;
5608;SDS011;2826;51.354;9.588;2022-10-01T14:34:26;8.93;;;1.70;;
5608;SDS011;2826;51.354;9.588;2022-10-01T14:37:04;4.73;;;2.20;;
5608;SDS011;2826;51.354;9.588;2022-10-01T14:39:32;2.87;;;2.60;;
5608;SDS011;2826;51.354;9.588;2022-10-01T14:42:06;1.53;;;0.97;;
5608;SDS011;2826;51.354;9.588;2022-10-01T14:44:35;0.90;;;0.90;;
5608;SDS011;2826;51.354;9.588;2022-10-01T14:47:10;1.30;;;1.00;;
5608;SDS011;2826;51.354;9.588;2022-10-01T14:49:39;3.27;;;1.00;;
5608;SDS011;2826;51.354;9.588;2022-10-01T14:52:07;5.17;;;1.20;;
5608;SDS011;2826;51.354;9.588;2022-10-01T14:54:45;2.50;;;1.10;;
5608;SDS011;2826;51.354;9.588;2022-10-01T14:57:17;3.10;;;1.13;;
5608;SDS011;2826;51.354;9.588;2022-10-01T14:59:52;3.10;;;1.30;;
5608;SDS011;2826;51.354;9.588;2022-10-01T15:02:19;2.60;;;1.20;;
5608;SDS011;2826;51.354;9.588;2022-10-01T15:04:48;4.13;;;1.63;;
5608;SDS011;2826;51.354;9.588;2022-10-01T15:07:16;2.30;;;1.10;;
5608;SDS011;2826;51.354;9.588;2022-10-01T15:09:44;2.80;;;1.00;;
5608;SDS011;2826;51.354;9.588;2022-10-01T15:12:12;2.23;;;1.17;;
5608;SDS011;2826;51.354;9.588;2022-10-01T15:14:43;3.03;;;1.17;;
5608;SDS011;2826;51.354;9.588;2022-10-01T15:17:14;2.60;;;1.20;;
5608;SDS011;2826;51.354;9.588;2022-10-01T15:19:45;5.07;;;1.03;;
5608;SDS011;2826;51.354;9.588;2022-10-01T15:22:17;2.00;;;1.20;;
5608;SDS011;2826;51.354;9.588;2022-10-01T15:24:46;4.20;;;1.40;;
5608;SDS011;2826;51.354;9.588;2022-10-01T15:27:16;2.30;;;1.00;;
5608;SDS011;2826;51.354;9.588;2022-10-01T15:29:50;4.83;;;1.43;;
5608;SDS011;2826;51.354;9.588;2022-10-01T15:32:20;3.57;;;1.20;;
5608;SDS011;2826;51.354;9.588;2022-10-01T15:34:48;1.57;;;0.97;;
5608;SDS011;2826;51.354;9.588;2022-10-01T15:37:19;1.73;;;1.30;;
5608;SDS011;2826;51.354;9.588;2022-10-01T15:39:49;3.30;;;1.20;;
5608;SDS011;2826;51.354;9.588;2022-10-01T15:42:21;2.57;;;1.30;;
5608;SDS011;2826;51.354;9.588;2022-10-01T15:45:21;6.00;;;1.40;;
5608;SDS011;2826;51.354;9.588;2022-10-01T15:47:50;2.37;;;1.33;;
5608;SDS011;2826;51.354;9.588;2022-10-01T15:50:21;1.93;;;1.20;;
5608;SDS011;2826;51.354;9.588;2022-10-01T15:52:52;2.33;;;1.40;;